Terminal Aerodrome Forecast
Issued by NWS North Platte, NE

Home | Current Version | Previous Version | Text Only | Print | Product List | Glossary On
Versions: 1 2 3 4 5 6 7 8 9 10 11 12 13 14
611
FTUS43 KLBF 080520
TAFLBF
TAF
KLBF 080520Z 0806/0906 31013G22KT P6SM SCT250
     FM081700 32020G28KT P6SM SCT250
     FM090000 31011KT P6SM SCT250=

USA.gov is the U.S. government's official web portal to all federal, state and local government web resources and services.